logo
Search for airport 
image banner adimage banner adimage banner ad
image banner ad

FQBR - Beira / International

Located in Beira, Mozambique

ICAO - FQBR, IATA - BEW

Data provided by Airmate  

General information

Coordinates: S19°47'45" E34°54'17"
Elevation is 36 feet MSL.
 
View others Airports in Sofala Province

Operational data

Special qualification required
Current time UTC:
Current local time:
Weather
METAR: FQBR 161900Z 13003KT CAVOK 19/19 Q1019
TAF: TAF FQBR 161600Z 1618/1724 19008KT 9999 FEW020 TX29/1713Z TN15/1702Z BECMG 1700/1702 35005KT BECMG 1711/1713 06008KT
View NOTAMs / SUP AIP / TFR affecting this airport [VIEW]
Communications frequencies: [VIEW]

Runways:

RWY identifierQFULength (ft)Width (ft)SurfaceLDA (ft)
12104°7874148ASP
30284°7874148ASP
17160°5660148ASP
35340°5660148ASP

Airport contact information

Address: Beira Mozambique

Satellite view of FQBR